sensor_id;sensor_type;location;lat;lon;timestamp;P1;durP1;ratioP1;P2;durP2;ratioP2
13408;SDS011;6775;49.574;11.170;2023-06-14T00:01:52;4.90;;;3.63;;
13408;SDS011;6775;49.574;11.170;2023-06-14T00:04:21;3.33;;;2.90;;
13408;SDS011;6775;49.574;11.170;2023-06-14T00:06:51;3.60;;;3.13;;
13408;SDS011;6775;49.574;11.170;2023-06-14T00:09:19;4.77;;;2.97;;
13408;SDS011;6775;49.574;11.170;2023-06-14T00:11:47;3.57;;;2.77;;
13408;SDS011;6775;49.574;11.170;2023-06-14T00:14:15;3.80;;;3.20;;
13408;SDS011;6775;49.574;11.170;2023-06-14T00:16:43;6.77;;;3.40;;
13408;SDS011;6775;49.574;11.170;2023-06-14T00:19:12;8.17;;;3.37;;
13408;SDS011;6775;49.574;11.170;2023-06-14T00:21:42;4.93;;;3.27;;
13408;SDS011;6775;49.574;11.170;2023-06-14T00:24:10;4.83;;;3.53;;
13408;SDS011;6775;49.574;11.170;2023-06-14T00:26:38;3.30;;;3.00;;
13408;SDS011;6775;49.574;11.170;2023-06-14T00:29:06;4.27;;;3.17;;
13408;SDS011;6775;49.574;11.170;2023-06-14T00:31:34;5.50;;;3.40;;
13408;SDS011;6775;49.574;11.170;2023-06-14T00:34:02;4.40;;;3.40;;
13408;SDS011;6775;49.574;11.170;2023-06-14T00:36:31;4.43;;;3.37;;
13408;SDS011;6775;49.574;11.170;2023-06-14T00:38:59;4.97;;;3.27;;
13408;SDS011;6775;49.574;11.170;2023-06-14T00:41:26;5.23;;;3.30;;
13408;SDS011;6775;49.574;11.170;2023-06-14T00:43:54;4.47;;;3.23;;
13408;SDS011;6775;49.574;11.170;2023-06-14T00:46:22;4.63;;;3.43;;
13408;SDS011;6775;49.574;11.170;2023-06-14T00:48:50;3.97;;;3.43;;
13408;SDS011;6775;49.574;11.170;2023-06-14T00:51:19;4.13;;;3.30;;
13408;SDS011;6775;49.574;11.170;2023-06-14T00:53:48;3.93;;;3.10;;
13408;SDS011;6775;49.574;11.170;2023-06-14T00:56:16;4.27;;;3.37;;
13408;SDS011;6775;49.574;11.170;2023-06-14T00:58:46;3.40;;;3.10;;
13408;SDS011;6775;49.574;11.170;2023-06-14T01:01:15;4.43;;;3.47;;
13408;SDS011;6775;49.574;11.170;2023-06-14T01:03:43;4.80;;;3.50;;
13408;SDS011;6775;49.574;11.170;2023-06-14T01:06:15;4.27;;;3.20;;
13408;SDS011;6775;49.574;11.170;2023-06-14T01:09:03;4.20;;;3.23;;
13408;SDS011;6775;49.574;11.170;2023-06-14T01:11:38;3.47;;;3.17;;
13408;SDS011;6775;49.574;11.170;2023-06-14T01:14:13;3.00;;;2.70;;
13408;SDS011;6775;49.574;11.170;2023-06-14T01:16:42;3.37;;;3.03;;
13408;SDS011;6775;49.574;11.170;2023-06-14T01:19:11;3.40;;;3.10;;
13408;SDS011;6775;49.574;11.170;2023-06-14T01:21:40;3.93;;;3.00;;
13408;SDS011;6775;49.574;11.170;2023-06-14T01:24:10;3.90;;;2.93;;
13408;SDS011;6775;49.574;11.170;2023-06-14T01:26:38;4.60;;;3.40;;
13408;SDS011;6775;49.574;11.170;2023-06-14T01:33:37;4.67;;;3.20;;
13408;SDS011;6775;49.574;11.170;2023-06-14T01:36:06;3.40;;;3.10;;
13408;SDS011;6775;49.574;11.170;2023-06-14T01:38:35;5.03;;;3.50;;
13408;SDS011;6775;49.574;11.170;2023-06-14T01:41:05;5.50;;;3.30;;
13408;SDS011;6775;49.574;11.170;2023-06-14T01:43:34;3.60;;;3.07;;
13408;SDS011;6775;49.574;11.170;2023-06-14T01:46:03;3.27;;;2.97;;
13408;SDS011;6775;49.574;11.170;2023-06-14T01:48:34;5.97;;;3.17;;
13408;SDS011;6775;49.574;11.170;2023-06-14T01:51:02;5.10;;;2.93;;
13408;SDS011;6775;49.574;11.170;2023-06-14T01:53:29;4.03;;;3.33;;
13408;SDS011;6775;49.574;11.170;2023-06-14T01:55:57;4.40;;;3.40;;
13408;SDS011;6775;49.574;11.170;2023-06-14T01:58:27;3.83;;;3.30;;
13408;SDS011;6775;49.574;11.170;2023-06-14T02:00:55;3.87;;;2.90;;
13408;SDS011;6775;49.574;11.170;2023-06-14T02:03:24;3.47;;;3.17;;
13408;SDS011;6775;49.574;11.170;2023-06-14T02:05:52;3.27;;;2.93;;
13408;SDS011;6775;49.574;11.170;2023-06-14T02:08:20;4.40;;;3.23;;
13408;SDS011;6775;49.574;11.170;2023-06-14T02:10:48;3.20;;;2.90;;
13408;SDS011;6775;49.574;11.170;2023-06-14T02:13:16;4.00;;;3.60;;
13408;SDS011;6775;49.574;11.170;2023-06-14T02:15:45;5.10;;;3.50;;
13408;SDS011;6775;49.574;11.170;2023-06-14T02:18:17;4.63;;;3.20;;
13408;SDS011;6775;49.574;11.170;2023-06-14T02:20:45;3.97;;;3.00;;
13408;SDS011;6775;49.574;11.170;2023-06-14T02:23:13;3.63;;;3.13;;
13408;SDS011;6775;49.574;11.170;2023-06-14T02:25:41;3.40;;;3.10;;
13408;SDS011;6775;49.574;11.170;2023-06-14T02:28:11;4.43;;;3.63;;
13408;SDS011;6775;49.574;11.170;2023-06-14T02:30:39;3.80;;;3.40;;
13408;SDS011;6775;49.574;11.170;2023-06-14T02:33:08;4.90;;;3.50;;
13408;SDS011;6775;49.574;11.170;2023-06-14T02:35:39;5.77;;;3.60;;
13408;SDS011;6775;49.574;11.170;2023-06-14T02:38:07;4.90;;;3.07;;
13408;SDS011;6775;49.574;11.170;2023-06-14T02:40:35;5.00;;;3.13;;
13408;SDS011;6775;49.574;11.170;2023-06-14T02:43:03;5.43;;;3.40;;
13408;SDS011;6775;49.574;11.170;2023-06-14T02:45:31;3.97;;;3.50;;
13408;SDS011;6775;49.574;11.170;2023-06-14T02:47:59;5.20;;;3.30;;
13408;SDS011;6775;49.574;11.170;2023-06-14T02:50:28;3.10;;;2.80;;
13408;SDS011;6775;49.574;11.170;2023-06-14T02:52:56;3.17;;;2.87;;
13408;SDS011;6775;49.574;11.170;2023-06-14T02:55:24;4.60;;;3.40;;
13408;SDS011;6775;49.574;11.170;2023-06-14T02:57:52;4.70;;;3.17;;
13408;SDS011;6775;49.574;11.170;2023-06-14T03:00:20;3.37;;;3.07;;
13408;SDS011;6775;49.574;11.170;2023-06-14T03:02:49;3.37;;;3.07;;
13408;SDS011;6775;49.574;11.170;2023-06-14T03:05:18;3.90;;;3.00;;
13408;SDS011;6775;49.574;11.170;2023-06-14T03:07:48;5.07;;;3.23;;
13408;SDS011;6775;49.574;11.170;2023-06-14T03:10:16;3.57;;;3.27;;
13408;SDS011;6775;49.574;11.170;2023-06-14T03:12:44;4.90;;;3.33;;
13408;SDS011;6775;49.574;11.170;2023-06-14T03:15:13;3.67;;;3.37;;
13408;SDS011;6775;49.574;11.170;2023-06-14T03:17:41;3.67;;;3.10;;
13408;SDS011;6775;49.574;11.170;2023-06-14T03:20:11;3.40;;;3.10;;
13408;SDS011;6775;49.574;11.170;2023-06-14T03:22:41;4.10;;;3.67;;
13408;SDS011;6775;49.574;11.170;2023-06-14T03:25:13;4.00;;;3.60;;
13408;SDS011;6775;49.574;11.170;2023-06-14T03:27:41;4.23;;;3.80;;
13408;SDS011;6775;49.574;11.170;2023-06-14T03:30:09;3.33;;;3.03;;
13408;SDS011;6775;49.574;11.170;2023-06-14T03:32:37;3.97;;;3.30;;
13408;SDS011;6775;49.574;11.170;2023-06-14T03:35:06;4.10;;;3.70;;
13408;SDS011;6775;49.574;11.170;2023-06-14T03:37:35;7.07;;;3.63;;
13408;SDS011;6775;49.574;11.170;2023-06-14T03:40:03;4.07;;;3.70;;
13408;SDS011;6775;49.574;11.170;2023-06-14T03:42:34;3.73;;;3.43;;
13408;SDS011;6775;49.574;11.170;2023-06-14T03:45:02;4.57;;;3.43;;
13408;SDS011;6775;49.574;11.170;2023-06-14T03:47:31;5.13;;;4.00;;
13408;SDS011;6775;49.574;11.170;2023-06-14T03:49:59;3.73;;;3.37;;
13408;SDS011;6775;49.574;11.170;2023-06-14T03:52:27;3.83;;;3.43;;
13408;SDS011;6775;49.574;11.170;2023-06-14T03:54:55;6.00;;;3.47;;
13408;SDS011;6775;49.574;11.170;2023-06-14T03:57:44;3.63;;;3.27;;
13408;SDS011;6775;49.574;11.170;2023-06-14T04:00:12;3.43;;;2.97;;
13408;SDS011;6775;49.574;11.170;2023-06-14T04:02:41;4.33;;;3.13;;
13408;SDS011;6775;49.574;11.170;2023-06-14T04:05:10;4.43;;;3.50;;
13408;SDS011;6775;49.574;11.170;2023-06-14T04:07:39;5.03;;;3.83;;
13408;SDS011;6775;49.574;11.170;2023-06-14T04:10:11;4.20;;;3.20;;
13408;SDS011;6775;49.574;11.170;2023-06-14T04:12:40;3.70;;;3.13;;
13408;SDS011;6775;49.574;11.170;2023-06-14T04:15:11;4.63;;;3.47;;
13408;SDS011;6775;49.574;11.170;2023-06-14T04:17:42;5.03;;;3.53;;
13408;SDS011;6775;49.574;11.170;2023-06-14T04:20:10;4.27;;;3.40;;
13408;SDS011;6775;49.574;11.170;2023-06-14T04:22:38;4.63;;;4.00;;
13408;SDS011;6775;49.574;11.170;2023-06-14T04:25:07;4.27;;;3.50;;
13408;SDS011;6775;49.574;11.170;2023-06-14T04:27:35;4.93;;;4.10;;
13408;SDS011;6775;49.574;11.170;2023-06-14T04:30:05;3.53;;;3.17;;
13408;SDS011;6775;49.574;11.170;2023-06-14T04:32:35;4.90;;;3.73;;
13408;SDS011;6775;49.574;11.170;2023-06-14T04:35:05;4.43;;;4.00;;
13408;SDS011;6775;49.574;11.170;2023-06-14T04:37:34;5.00;;;4.00;;
13408;SDS011;6775;49.574;11.170;2023-06-14T04:40:06;4.50;;;4.07;;
13408;SDS011;6775;49.574;11.170;2023-06-14T04:42:38;4.50;;;3.33;;
13408;SDS011;6775;49.574;11.170;2023-06-14T04:45:07;3.50;;;3.20;;
13408;SDS011;6775;49.574;11.170;2023-06-14T04:47:37;3.43;;;3.13;;
13408;SDS011;6775;49.574;11.170;2023-06-14T04:50:06;3.87;;;3.57;;
13408;SDS011;6775;49.574;11.170;2023-06-14T04:52:36;3.67;;;3.37;;
13408;SDS011;6775;49.574;11.170;2023-06-14T04:55:04;4.60;;;3.43;;
13408;SDS011;6775;49.574;11.170;2023-06-14T04:57:32;3.30;;;2.97;;
13408;SDS011;6775;49.574;11.170;2023-06-14T05:00:01;3.63;;;3.00;;
13408;SDS011;6775;49.574;11.170;2023-06-14T05:02:30;3.60;;;3.30;;
13408;SDS011;6775;49.574;11.170;2023-06-14T05:05:00;3.33;;;3.03;;
13408;SDS011;6775;49.574;11.170;2023-06-14T05:07:28;5.77;;;3.40;;
13408;SDS011;6775;49.574;11.170;2023-06-14T05:09:56;4.03;;;3.63;;
13408;SDS011;6775;49.574;11.170;2023-06-14T05:12:24;4.37;;;3.30;;
13408;SDS011;6775;49.574;11.170;2023-06-14T05:14:52;4.40;;;4.00;;
13408;SDS011;6775;49.574;11.170;2023-06-14T05:17:20;4.37;;;3.90;;
13408;SDS011;6775;49.574;11.170;2023-06-14T05:19:48;6.07;;;3.90;;
13408;SDS011;6775;49.574;11.170;2023-06-14T05:22:18;4.27;;;3.33;;
13408;SDS011;6775;49.574;11.170;2023-06-14T05:24:46;5.50;;;3.30;;
13408;SDS011;6775;49.574;11.170;2023-06-14T05:27:14;5.10;;;3.40;;
13408;SDS011;6775;49.574;11.170;2023-06-14T05:29:43;4.53;;;3.60;;
13408;SDS011;6775;49.574;11.170;2023-06-14T05:32:11;5.63;;;3.97;;
13408;SDS011;6775;49.574;11.170;2023-06-14T05:34:39;3.83;;;3.50;;
13408;SDS011;6775;49.574;11.170;2023-06-14T05:37:07;4.83;;;3.47;;
13408;SDS011;6775;49.574;11.170;2023-06-14T05:39:36;4.33;;;3.40;;
13408;SDS011;6775;49.574;11.170;2023-06-14T05:42:04;4.13;;;3.03;;
13408;SDS011;6775;49.574;11.170;2023-06-14T05:44:33;3.47;;;2.90;;
13408;SDS011;6775;49.574;11.170;2023-06-14T05:47:01;4.47;;;3.47;;
13408;SDS011;6775;49.574;11.170;2023-06-14T05:49:29;5.87;;;3.77;;
13408;SDS011;6775;49.574;11.170;2023-06-14T05:51:57;4.67;;;3.90;;
13408;SDS011;6775;49.574;11.170;2023-06-14T05:54:25;7.40;;;3.83;;
13408;SDS011;6775;49.574;11.170;2023-06-14T05:56:54;3.70;;;3.30;;
13408;SDS011;6775;49.574;11.170;2023-06-14T05:59:22;4.70;;;3.20;;
13408;SDS011;6775;49.574;11.170;2023-06-14T06:01:49;6.00;;;3.77;;
13408;SDS011;6775;49.574;11.170;2023-06-14T06:04:17;5.77;;;3.40;;
13408;SDS011;6775;49.574;11.170;2023-06-14T06:06:46;3.67;;;3.37;;
13408;SDS011;6775;49.574;11.170;2023-06-14T06:09:14;5.43;;;3.47;;
13408;SDS011;6775;49.574;11.170;2023-06-14T06:11:41;6.87;;;3.63;;
13408;SDS011;6775;49.574;11.170;2023-06-14T06:14:19;4.17;;;3.40;;
13408;SDS011;6775;49.574;11.170;2023-06-14T06:16:47;3.63;;;3.20;;
13408;SDS011;6775;49.574;11.170;2023-06-14T06:19:15;3.77;;;3.33;;
13408;SDS011;6775;49.574;11.170;2023-06-14T06:21:43;6.10;;;3.50;;
13408;SDS011;6775;49.574;11.170;2023-06-14T06:24:11;3.83;;;3.43;;
13408;SDS011;6775;49.574;11.170;2023-06-14T06:26:39;4.07;;;3.20;;
13408;SDS011;6775;49.574;11.170;2023-06-14T06:29:07;4.30;;;3.33;;
13408;SDS011;6775;49.574;11.170;2023-06-14T06:31:36;3.97;;;3.57;;
13408;SDS011;6775;49.574;11.170;2023-06-14T06:34:04;4.53;;;3.30;;
13408;SDS011;6775;49.574;11.170;2023-06-14T06:36:32;5.20;;;3.53;;
13408;SDS011;6775;49.574;11.170;2023-06-14T06:39:00;5.60;;;3.20;;
13408;SDS011;6775;49.574;11.170;2023-06-14T06:41:32;4.80;;;3.80;;
13408;SDS011;6775;49.574;11.170;2023-06-14T06:44:01;3.90;;;3.60;;
13408;SDS011;6775;49.574;11.170;2023-06-14T06:46:28;3.77;;;3.47;;
13408;SDS011;6775;49.574;11.170;2023-06-14T06:48:58;3.50;;;3.20;;
13408;SDS011;6775;49.574;11.170;2023-06-14T06:51:26;3.70;;;2.90;;
13408;SDS011;6775;49.574;11.170;2023-06-14T06:53:54;3.83;;;2.97;;
13408;SDS011;6775;49.574;11.170;2023-06-14T06:56:22;4.57;;;3.33;;
13408;SDS011;6775;49.574;11.170;2023-06-14T06:58:50;3.77;;;3.27;;
13408;SDS011;6775;49.574;11.170;2023-06-14T07:01:18;3.57;;;2.90;;
13408;SDS011;6775;49.574;11.170;2023-06-14T07:03:47;4.03;;;3.10;;
13408;SDS011;6775;49.574;11.170;2023-06-14T07:06:16;3.70;;;3.07;;
13408;SDS011;6775;49.574;11.170;2023-06-14T07:08:45;3.63;;;3.33;;
13408;SDS011;6775;49.574;11.170;2023-06-14T07:11:15;4.17;;;3.73;;
13408;SDS011;6775;49.574;11.170;2023-06-14T07:13:43;3.27;;;3.00;;
13408;SDS011;6775;49.574;11.170;2023-06-14T07:16:11;3.17;;;2.90;;
13408;SDS011;6775;49.574;11.170;2023-06-14T07:18:39;3.17;;;2.80;;
13408;SDS011;6775;49.574;11.170;2023-06-14T07:21:07;3.10;;;2.80;;
13408;SDS011;6775;49.574;11.170;2023-06-14T07:23:36;4.17;;;3.03;;
13408;SDS011;6775;49.574;11.170;2023-06-14T07:26:04;4.67;;;3.10;;
13408;SDS011;6775;49.574;11.170;2023-06-14T07:28:32;3.27;;;2.83;;
13408;SDS011;6775;49.574;11.170;2023-06-14T07:31:00;3.23;;;2.90;;
13408;SDS011;6775;49.574;11.170;2023-06-14T07:33:28;3.00;;;2.80;;
13408;SDS011;6775;49.574;11.170;2023-06-14T07:35:56;4.93;;;2.87;;
13408;SDS011;6775;49.574;11.170;2023-06-14T07:38:24;2.90;;;2.70;;
13408;SDS011;6775;49.574;11.170;2023-06-14T07:40:53;4.13;;;3.10;;
13408;SDS011;6775;49.574;11.170;2023-06-14T07:43:21;4.47;;;3.20;;
13408;SDS011;6775;49.574;11.170;2023-06-14T07:45:49;5.07;;;2.80;;
13408;SDS011;6775;49.574;11.170;2023-06-14T07:48:32;2.70;;;2.50;;
13408;SDS011;6775;49.574;11.170;2023-06-14T07:51:00;4.27;;;3.23;;
13408;SDS011;6775;49.574;11.170;2023-06-14T07:53:28;7.50;;;3.27;;
13408;SDS011;6775;49.574;11.170;2023-06-14T07:55:58;4.00;;;3.00;;
13408;SDS011;6775;49.574;11.170;2023-06-14T07:58:26;3.67;;;3.00;;
13408;SDS011;6775;49.574;11.170;2023-06-14T08:00:54;3.40;;;3.03;;
13408;SDS011;6775;49.574;11.170;2023-06-14T08:03:22;3.13;;;2.77;;
13408;SDS011;6775;49.574;11.170;2023-06-14T08:05:50;3.97;;;3.10;;
13408;SDS011;6775;49.574;11.170;2023-06-14T08:08:18;4.33;;;3.23;;
13408;SDS011;6775;49.574;11.170;2023-06-14T08:10:46;3.47;;;2.87;;
13408;SDS011;6775;49.574;11.170;2023-06-14T08:13:15;3.30;;;2.90;;
13408;SDS011;6775;49.574;11.170;2023-06-14T08:15:43;3.07;;;2.77;;
13408;SDS011;6775;49.574;11.170;2023-06-14T08:18:11;2.90;;;2.70;;
13408;SDS011;6775;49.574;11.170;2023-06-14T08:20:39;3.33;;;2.87;;
13408;SDS011;6775;49.574;11.170;2023-06-14T08:23:07;4.27;;;3.13;;
13408;SDS011;6775;49.574;11.170;2023-06-14T08:25:35;3.03;;;2.70;;
13408;SDS011;6775;49.574;11.170;2023-06-14T08:28:03;5.83;;;3.17;;
13408;SDS011;6775;49.574;11.170;2023-06-14T08:30:32;3.10;;;2.77;;
13408;SDS011;6775;49.574;11.170;2023-06-14T08:33:00;4.67;;;3.07;;
13408;SDS011;6775;49.574;11.170;2023-06-14T08:35:42;3.50;;;3.20;;
13408;SDS011;6775;49.574;11.170;2023-06-14T08:38:10;2.83;;;2.63;;
13408;SDS011;6775;49.574;11.170;2023-06-14T08:40:38;4.27;;;2.70;;
13408;SDS011;6775;49.574;11.170;2023-06-14T08:43:08;3.27;;;2.80;;
13408;SDS011;6775;49.574;11.170;2023-06-14T08:45:38;3.93;;;2.87;;
13408;SDS011;6775;49.574;11.170;2023-06-14T08:48:06;3.97;;;3.10;;
13408;SDS011;6775;49.574;11.170;2023-06-14T08:50:35;2.80;;;2.60;;
13408;SDS011;6775;49.574;11.170;2023-06-14T08:53:07;2.87;;;2.63;;
13408;SDS011;6775;49.574;11.170;2023-06-14T08:55:39;4.03;;;3.13;;
13408;SDS011;6775;49.574;11.170;2023-06-14T08:58:09;2.93;;;2.60;;
13408;SDS011;6775;49.574;11.170;2023-06-14T09:00:42;4.53;;;2.80;;
13408;SDS011;6775;49.574;11.170;2023-06-14T09:03:10;3.33;;;2.70;;
13408;SDS011;6775;49.574;11.170;2023-06-14T09:05:41;2.90;;;2.67;;
13408;SDS011;6775;49.574;11.170;2023-06-14T09:08:10;3.43;;;3.00;;
13408;SDS011;6775;49.574;11.170;2023-06-14T09:10:38;3.43;;;3.13;;
13408;SDS011;6775;49.574;11.170;2023-06-14T09:13:07;3.33;;;2.67;;
13408;SDS011;6775;49.574;11.170;2023-06-14T09:15:35;2.80;;;2.50;;
13408;SDS011;6775;49.574;11.170;2023-06-14T09:18:04;4.07;;;2.70;;
13408;SDS011;6775;49.574;11.170;2023-06-14T09:20:33;3.10;;;2.70;;
13408;SDS011;6775;49.574;11.170;2023-06-14T09:23:02;4.10;;;2.60;;
13408;SDS011;6775;49.574;11.170;2023-06-14T09:25:31;2.87;;;2.57;;
13408;SDS011;6775;49.574;11.170;2023-06-14T09:28:06;3.53;;;2.97;;
13408;SDS011;6775;49.574;11.170;2023-06-14T09:30:36;5.03;;;2.50;;
13408;SDS011;6775;49.574;11.170;2023-06-14T09:33:05;3.57;;;2.90;;
13408;SDS011;6775;49.574;11.170;2023-06-14T09:35:34;3.37;;;3.07;;
13408;SDS011;6775;49.574;11.170;2023-06-14T09:38:02;3.93;;;2.70;;
13408;SDS011;6775;49.574;11.170;2023-06-14T09:40:33;4.90;;;3.07;;
13408;SDS011;6775;49.574;11.170;2023-06-14T09:43:04;3.40;;;3.10;;
13408;SDS011;6775;49.574;11.170;2023-06-14T09:45:34;4.00;;;2.77;;
13408;SDS011;6775;49.574;11.170;2023-06-14T09:48:03;6.47;;;2.93;;
13408;SDS011;6775;49.574;11.170;2023-06-14T09:50:34;3.03;;;2.73;;
13408;SDS011;6775;49.574;11.170;2023-06-14T09:53:02;5.50;;;3.03;;
13408;SDS011;6775;49.574;11.170;2023-06-14T09:55:33;3.60;;;2.97;;
13408;SDS011;6775;49.574;11.170;2023-06-14T09:58:04;3.10;;;2.90;;
13408;SDS011;6775;49.574;11.170;2023-06-14T10:00:34;3.17;;;2.87;;
13408;SDS011;6775;49.574;11.170;2023-06-14T10:03:03;5.17;;;3.07;;
13408;SDS011;6775;49.574;11.170;2023-06-14T10:05:39;3.20;;;2.90;;
13408;SDS011;6775;49.574;11.170;2023-06-14T10:08:12;5.00;;;2.83;;
13408;SDS011;6775;49.574;11.170;2023-06-14T10:10:43;5.47;;;2.83;;
13408;SDS011;6775;49.574;11.170;2023-06-14T10:13:11;3.93;;;2.73;;
13408;SDS011;6775;49.574;11.170;2023-06-14T10:15:41;3.90;;;2.80;;
13408;SDS011;6775;49.574;11.170;2023-06-14T10:18:18;3.60;;;2.77;;
13408;SDS011;6775;49.574;11.170;2023-06-14T10:20:53;3.13;;;2.80;;
13408;SDS011;6775;49.574;11.170;2023-06-14T10:23:30;3.20;;;2.90;;
13408;SDS011;6775;49.574;11.170;2023-06-14T10:26:01;3.77;;;3.10;;
13408;SDS011;6775;49.574;11.170;2023-06-14T10:28:29;2.87;;;2.60;;
13408;SDS011;6775;49.574;11.170;2023-06-14T10:31:01;3.40;;;2.93;;
13408;SDS011;6775;49.574;11.170;2023-06-14T10:33:32;2.93;;;2.63;;
13408;SDS011;6775;49.574;11.170;2023-06-14T10:36:06;2.53;;;2.33;;
13408;SDS011;6775;49.574;11.170;2023-06-14T10:38:56;3.40;;;3.10;;
13408;SDS011;6775;49.574;11.170;2023-06-14T10:41:25;3.00;;;2.50;;
13408;SDS011;6775;49.574;11.170;2023-06-14T10:46:56;4.50;;;2.60;;
13408;SDS011;6775;49.574;11.170;2023-06-14T10:49:37;3.03;;;2.37;;
13408;SDS011;6775;49.574;11.170;2023-06-14T10:52:08;3.13;;;2.70;;
13408;SDS011;6775;49.574;11.170;2023-06-14T10:55:01;6.30;;;3.03;;
13408;SDS011;6775;49.574;11.170;2023-06-14T10:57:32;4.67;;;2.97;;
13408;SDS011;6775;49.574;11.170;2023-06-14T11:00:17;3.47;;;2.73;;
13408;SDS011;6775;49.574;11.170;2023-06-14T11:02:52;2.60;;;2.40;;
13408;SDS011;6775;49.574;11.170;2023-06-14T11:05:51;2.83;;;2.63;;
13408;SDS011;6775;49.574;11.170;2023-06-14T11:08:27;4.33;;;2.87;;
13408;SDS011;6775;49.574;11.170;2023-06-14T11:11:23;3.20;;;2.83;;
13408;SDS011;6775;49.574;11.170;2023-06-14T11:13:57;2.93;;;2.60;;
13408;SDS011;6775;49.574;11.170;2023-06-14T11:16:27;2.90;;;2.60;;
13408;SDS011;6775;49.574;11.170;2023-06-14T11:18:55;3.57;;;2.40;;
13408;SDS011;6775;49.574;11.170;2023-06-14T11:21:25;2.90;;;2.47;;
13408;SDS011;6775;49.574;11.170;2023-06-14T11:23:58;2.67;;;2.47;;
13408;SDS011;6775;49.574;11.170;2023-06-14T11:26:26;2.43;;;2.23;;
13408;SDS011;6775;49.574;11.170;2023-06-14T11:28:55;5.23;;;2.80;;
13408;SDS011;6775;49.574;11.170;2023-06-14T11:31:24;2.67;;;2.43;;
13408;SDS011;6775;49.574;11.170;2023-06-14T11:33:53;2.40;;;2.20;;
13408;SDS011;6775;49.574;11.170;2023-06-14T11:36:21;2.67;;;2.47;;
13408;SDS011;6775;49.574;11.170;2023-06-14T11:38:51;3.50;;;2.50;;
13408;SDS011;6775;49.574;11.170;2023-06-14T11:41:25;3.00;;;2.50;;
13408;SDS011;6775;49.574;11.170;2023-06-14T11:43:59;2.50;;;2.30;;
13408;SDS011;6775;49.574;11.170;2023-06-14T11:46:28;2.93;;;2.33;;
13408;SDS011;6775;49.574;11.170;2023-06-14T11:48:56;2.93;;;2.67;;
13408;SDS011;6775;49.574;11.170;2023-06-14T11:51:24;2.63;;;2.20;;
13408;SDS011;6775;49.574;11.170;2023-06-14T11:53:53;3.57;;;2.50;;
13408;SDS011;6775;49.574;11.170;2023-06-14T11:56:21;3.00;;;2.70;;
13408;SDS011;6775;49.574;11.170;2023-06-14T11:58:49;2.43;;;2.20;;
13408;SDS011;6775;49.574;11.170;2023-06-14T12:01:17;2.37;;;2.00;;
13408;SDS011;6775;49.574;11.170;2023-06-14T12:03:48;2.57;;;2.20;;
13408;SDS011;6775;49.574;11.170;2023-06-14T12:06:25;3.07;;;2.57;;
13408;SDS011;6775;49.574;11.170;2023-06-14T12:08:57;3.13;;;2.10;;
13408;SDS011;6775;49.574;11.170;2023-06-14T12:11:27;3.00;;;2.20;;
13408;SDS011;6775;49.574;11.170;2023-06-14T12:13:59;2.50;;;2.30;;
13408;SDS011;6775;49.574;11.170;2023-06-14T12:16:31;3.00;;;2.40;;
13408;SDS011;6775;49.574;11.170;2023-06-14T12:19:01;2.60;;;2.40;;
13408;SDS011;6775;49.574;11.170;2023-06-14T12:21:36;3.37;;;2.53;;
13408;SDS011;6775;49.574;11.170;2023-06-14T12:24:08;3.80;;;2.30;;
13408;SDS011;6775;49.574;11.170;2023-06-14T12:26:38;2.87;;;2.37;;
13408;SDS011;6775;49.574;11.170;2023-06-14T12:29:07;2.10;;;1.97;;
13408;SDS011;6775;49.574;11.170;2023-06-14T12:31:36;2.50;;;2.30;;
13408;SDS011;6775;49.574;11.170;2023-06-14T12:34:05;2.60;;;2.40;;
13408;SDS011;6775;49.574;11.170;2023-06-14T12:36:34;2.70;;;2.50;;
13408;SDS011;6775;49.574;11.170;2023-06-14T12:39:08;3.63;;;2.50;;
13408;SDS011;6775;49.574;11.170;2023-06-14T12:41:36;3.03;;;2.30;;
13408;SDS011;6775;49.574;11.170;2023-06-14T12:44:04;3.53;;;2.20;;
13408;SDS011;6775;49.574;11.170;2023-06-14T12:46:32;2.50;;;2.30;;
13408;SDS011;6775;49.574;11.170;2023-06-14T12:49:01;2.43;;;1.73;;
13408;SDS011;6775;49.574;11.170;2023-06-14T12:51:29;2.53;;;2.33;;
13408;SDS011;6775;49.574;11.170;2023-06-14T12:53:57;2.67;;;2.30;;
13408;SDS011;6775;49.574;11.170;2023-06-14T12:56:26;3.07;;;2.33;;
13408;SDS011;6775;49.574;11.170;2023-06-14T12:58:54;3.43;;;2.33;;
13408;SDS011;6775;49.574;11.170;2023-06-14T13:01:22;2.43;;;2.23;;
13408;SDS011;6775;49.574;11.170;2023-06-14T13:03:50;2.73;;;2.53;;
13408;SDS011;6775;49.574;11.170;2023-06-14T13:06:20;2.93;;;2.10;;
13408;SDS011;6775;49.574;11.170;2023-06-14T13:08:48;2.50;;;2.30;;
13408;SDS011;6775;49.574;11.170;2023-06-14T13:11:16;2.37;;;2.03;;
13408;SDS011;6775;49.574;11.170;2023-06-14T13:13:45;2.37;;;2.17;;
13408;SDS011;6775;49.574;11.170;2023-06-14T13:16:13;2.40;;;1.90;;
13408;SDS011;6775;49.574;11.170;2023-06-14T13:18:41;2.30;;;2.10;;
13408;SDS011;6775;49.574;11.170;2023-06-14T13:21:09;2.97;;;2.67;;
13408;SDS011;6775;49.574;11.170;2023-06-14T13:23:37;2.80;;;2.60;;
13408;SDS011;6775;49.574;11.170;2023-06-14T13:26:05;3.20;;;2.37;;
13408;SDS011;6775;49.574;11.170;2023-06-14T13:28:32;2.77;;;2.43;;
13408;SDS011;6775;49.574;11.170;2023-06-14T13:31:02;4.60;;;2.43;;
13408;SDS011;6775;49.574;11.170;2023-06-14T13:33:30;2.30;;;2.03;;
13408;SDS011;6775;49.574;11.170;2023-06-14T13:35:59;3.47;;;2.47;;
13408;SDS011;6775;49.574;11.170;2023-06-14T13:38:27;2.37;;;2.10;;
13408;SDS011;6775;49.574;11.170;2023-06-14T13:40:55;2.73;;;2.50;;
13408;SDS011;6775;49.574;11.170;2023-06-14T13:43:22;2.30;;;2.10;;
13408;SDS011;6775;49.574;11.170;2023-06-14T13:45:50;2.80;;;2.37;;
13408;SDS011;6775;49.574;11.170;2023-06-14T13:48:19;3.63;;;2.13;;
13408;SDS011;6775;49.574;11.170;2023-06-14T13:50:48;2.90;;;2.10;;
13408;SDS011;6775;49.574;11.170;2023-06-14T13:53:16;2.53;;;2.07;;
13408;SDS011;6775;49.574;11.170;2023-06-14T13:55:44;3.00;;;2.67;;
13408;SDS011;6775;49.574;11.170;2023-06-14T13:58:11;2.50;;;2.10;;
13408;SDS011;6775;49.574;11.170;2023-06-14T14:00:40;2.97;;;2.10;;
13408;SDS011;6775;49.574;11.170;2023-06-14T14:03:08;3.00;;;2.30;;
13408;SDS011;6775;49.574;11.170;2023-06-14T14:05:37;2.40;;;2.20;;
13408;SDS011;6775;49.574;11.170;2023-06-14T14:08:05;2.53;;;2.33;;
13408;SDS011;6775;49.574;11.170;2023-06-14T14:10:33;3.30;;;2.37;;
13408;SDS011;6775;49.574;11.170;2023-06-14T14:13:01;2.97;;;2.10;;
13408;SDS011;6775;49.574;11.170;2023-06-14T14:15:29;2.33;;;2.13;;
13408;SDS011;6775;49.574;11.170;2023-06-14T14:17:56;2.20;;;1.90;;
13408;SDS011;6775;49.574;11.170;2023-06-14T14:20:25;2.30;;;2.10;;
13408;SDS011;6775;49.574;11.170;2023-06-14T14:22:54;2.53;;;2.13;;
13408;SDS011;6775;49.574;11.170;2023-06-14T14:25:22;2.27;;;2.03;;
13408;SDS011;6775;49.574;11.170;2023-06-14T14:27:50;1.90;;;1.80;;
13408;SDS011;6775;49.574;11.170;2023-06-14T14:30:17;2.00;;;1.90;;
13408;SDS011;6775;49.574;11.170;2023-06-14T14:32:49;2.30;;;2.10;;
13408;SDS011;6775;49.574;11.170;2023-06-14T14:35:19;2.40;;;2.20;;
13408;SDS011;6775;49.574;11.170;2023-06-14T14:37:50;2.17;;;1.97;;
13408;SDS011;6775;49.574;11.170;2023-06-14T14:40:19;2.10;;;1.70;;
13408;SDS011;6775;49.574;11.170;2023-06-14T14:42:47;3.83;;;2.00;;
13408;SDS011;6775;49.574;11.170;2023-06-14T14:45:15;1.77;;;1.67;;
13408;SDS011;6775;49.574;11.170;2023-06-14T14:47:43;1.93;;;1.83;;
13408;SDS011;6775;49.574;11.170;2023-06-14T14:50:11;2.30;;;2.10;;
13408;SDS011;6775;49.574;11.170;2023-06-14T14:52:40;2.37;;;1.90;;
13408;SDS011;6775;49.574;11.170;2023-06-14T14:55:08;2.27;;;2.07;;
13408;SDS011;6775;49.574;11.170;2023-06-14T14:57:37;2.30;;;2.07;;
13408;SDS011;6775;49.574;11.170;2023-06-14T15:00:05;4.23;;;2.23;;
13408;SDS011;6775;49.574;11.170;2023-06-14T15:02:34;2.77;;;2.13;;
13408;SDS011;6775;49.574;11.170;2023-06-14T15:05:02;2.23;;;2.00;;
13408;SDS011;6775;49.574;11.170;2023-06-14T15:07:31;2.03;;;1.83;;
13408;SDS011;6775;49.574;11.170;2023-06-14T15:09:59;2.30;;;2.10;;